Time;durP1;ratioP1;P1;durP2;ratioP2;P2;SDS_P1;SDS_P2;PMS_P1;PMS_P2;Temp;Humidity;BMP_temperature;BMP_pressure;BME280_temperature;BME280_humidity;BME280_pressure;Samples;Min_cycle;Max_cycle;Signal;HPM_P1;HPM_P2
2021/12/17 00:04:39;;;;;;;39.90;25.77;;;6.40;99.90;;;;;;4994552;28;20038;-81
2021/12/17 00:07:12;;;;;;;28.00;25.25;;;6.40;99.90;;;;;;5003314;28;20030;-81
2021/12/17 00:09:40;;;;;;;27.70;24.92;;;6.40;99.90;;;;;;4994353;28;20428;-81
2021/12/17 00:12:11;;;;;;;25.63;21.98;;;6.40;99.90;;;;;;4994402;28;20043;-81
2021/12/17 00:14:39;;;;;;;25.15;22.02;;;6.40;99.90;;;;;;5002231;28;20034;-81
2021/12/17 00:17:11;;;;;;;26.10;23.58;;;6.40;99.90;;;;;;5006491;28;20030;-80
2021/12/17 00:52:57;;;;;;;25.10;22.65;;;6.40;99.90;;;;;;4948895;28;20050;-82
2021/12/17 00:55:23;;;;;;;25.58;23.08;;;6.40;99.90;;;;;;4994131;28;20041;-81
2021/12/17 00:57:50;;;;;;;24.23;21.83;;;6.40;99.90;;;;;;4999331;28;20041;-81
2021/12/17 01:00:20;;;;;;;25.10;22.77;;;6.40;99.90;;;;;;4986192;28;20067;-82
2021/12/17 01:02:48;;;;;;;17.73;16.02;;;6.50;99.90;;;;;;4992899;28;20058;-81
2021/12/17 01:05:19;;;;;;;22.65;19.30;;;6.50;99.90;;;;;;4984021;28;20038;-81
2021/12/17 01:07:49;;;;;;;20.25;18.35;;;6.50;99.90;;;;;;4976419;28;20464;-81
2021/12/17 01:10:21;;;;;;;20.13;18.15;;;6.40;99.90;;;;;;4970744;28;20054;-82
2021/12/17 01:12:57;;;;;;;15.00;13.45;;;6.50;99.90;;;;;;4994201;28;20046;-82
2021/12/17 01:15:51;;;;;;;18.48;16.58;;;6.50;99.90;;;;;;4986089;28;20046;-81
2021/12/17 01:18:38;;;;;;;22.55;20.20;;;6.50;99.90;;;;;;4976420;28;20049;-82
2021/12/17 01:21:26;;;;;;;21.88;19.20;;;6.40;99.90;;;;;;4975828;28;20122;-82
2021/12/17 01:24:40;;;;;;;23.85;19.50;;;6.40;99.90;;;;;;4976007;28;20034;-82
2021/12/17 01:36:17;;;;;;;25.85;22.38;;;6.40;99.90;;;;;;4973056;28;20042;-82
2021/12/17 01:44:06;;;;;;;23.08;20.77;;;6.40;99.90;;;;;;4992831;28;20053;-82
2021/12/17 01:46:35;;;;;;;23.83;21.40;;;6.50;99.90;;;;;;4985134;28;20049;-82
2021/12/17 02:00:07;;;;;;;26.17;21.77;;;6.50;99.90;;;;;;4974229;28;20042;-83
2021/12/17 02:02:56;;;;;;;19.60;17.02;;;6.50;99.90;;;;;;4991431;28;20038;-82
2021/12/17 02:05:31;;;;;;;20.35;17.10;;;6.50;99.90;;;;;;4987162;28;20478;-79
2021/12/17 02:07:59;;;;;;;36.28;28.40;;;6.50;99.90;;;;;;4996523;28;20038;-82
2021/12/17 02:11:23;;;;;;;103.72;76.43;;;6.50;99.90;;;;;;4975103;28;20054;-82
2021/12/17 02:31:58;;;;;;;16.50;15.05;;;6.50;99.90;;;;;;4983770;28;20059;-82
2021/12/17 02:36:55;;;;;;;16.63;15.20;;;6.50;99.90;;;;;;4991680;28;20045;-82
2021/12/17 02:47:34;;;;;;;29.70;22.40;;;6.50;99.90;;;;;;4974604;28;20049;-78
2021/12/17 02:50:00;;;;;;;28.65;21.90;;;6.50;99.90;;;;;;4992324;28;20049;-82
2021/12/17 02:52:29;;;;;;;21.23;19.05;;;6.50;99.90;;;;;;4983285;28;20042;-83
2021/12/17 02:54:57;;;;;;;21.27;19.13;;;6.50;99.90;;;;;;5002221;28;20035;-83
2021/12/17 02:57:25;;;;;;;20.58;18.50;;;6.50;99.90;;;;;;4992454;28;20506;-82
2021/12/17 02:59:52;;;;;;;24.75;22.20;;;6.50;99.90;;;;;;4991553;28;20054;-82
2021/12/17 03:02:23;;;;;;;32.72;24.52;;;6.50;99.90;;;;;;4990109;28;20038;-81
2021/12/17 03:04:50;;;;;;;23.42;21.13;;;6.50;99.90;;;;;;4981651;28;20050;-82
2021/12/17 03:07:16;;;;;;;22.35;20.02;;;6.50;99.90;;;;;;4992367;28;20030;-83
2021/12/17 03:12:25;;;;;;;20.77;16.63;;;6.50;99.90;;;;;;4992284;28;20041;-82
2021/12/17 03:14:59;;;;;;;17.63;15.82;;;6.50;99.90;;;;;;4977231;28;20471;-82
2021/12/17 03:18:01;;;;;;;17.98;16.08;;;6.50;99.90;;;;;;4995234;28;20360;-82
2021/12/17 03:25:49;;;;;;;15.27;13.77;;;6.50;99.90;;;;;;5002777;28;20041;-82
2021/12/17 03:28:16;;;;;;;16.25;14.32;;;6.50;99.90;;;;;;4985811;28;20046;-82
2021/12/17 03:30:42;;;;;;;17.13;13.85;;;6.50;99.90;;;;;;4994488;28;20476;-81
2021/12/17 03:33:08;;;;;;;15.68;14.10;;;6.50;99.90;;;;;;4983345;28;20038;-82
2021/12/17 03:35:34;;;;;;;15.90;14.10;;;6.50;99.90;;;;;;5007923;28;20041;-81
2021/12/17 03:38:01;;;;;;;17.52;14.18;;;6.40;99.90;;;;;;4995639;28;20034;-82
2021/12/17 03:40:28;;;;;;;16.88;13.50;;;6.40;99.90;;;;;;4995735;28;20034;-83
2021/12/17 03:43:01;;;;;;;15.40;13.90;;;6.40;99.90;;;;;;4976817;28;20042;-82
2021/12/17 03:45:28;;;;;;;20.15;13.95;;;6.40;99.90;;;;;;4977787;28;20484;-82
2021/12/17 03:48:00;;;;;;;15.88;13.38;;;6.40;99.90;;;;;;4995249;28;20467;-82
2021/12/17 03:50:26;;;;;;;14.85;13.40;;;6.40;99.90;;;;;;4994658;28;20080;-82
2021/12/17 03:52:53;;;;;;;15.68;13.18;;;6.40;99.90;;;;;;4994119;28;20037;-82
2021/12/17 03:55:24;;;;;;;13.68;12.35;;;6.40;99.90;;;;;;4985986;28;20375;-83
2021/12/17 03:57:51;;;;;;;13.07;11.73;;;6.30;99.90;;;;;;4983634;28;20045;-82
2021/12/17 04:00:17;;;;;;;14.90;13.35;;;6.30;99.90;;;;;;5001270;28;20030;-81
2021/12/17 04:02:44;;;;;;;12.90;11.70;;;6.30;99.90;;;;;;4994623;28;20046;-82
2021/12/17 04:05:17;;;;;;;14.45;13.02;;;6.30;99.90;;;;;;4979724;28;20065;-82
2021/12/17 04:07:59;;;;;;;14.82;13.40;;;6.30;99.90;;;;;;4997526;28;20456;-82
2021/12/17 04:10:49;;;;;;;13.98;12.55;;;6.30;99.90;;;;;;4993825;28;20415;-82
2021/12/17 04:13:34;;;;;;;16.50;12.85;;;6.30;99.90;;;;;;4992113;28;20407;-82
2021/12/17 04:16:08;;;;;;;11.50;10.45;;;6.30;99.90;;;;;;4977328;28;20057;-82
2021/12/17 04:18:41;;;;;;;13.32;11.40;;;6.30;99.90;;;;;;4994738;28;20479;-79
2021/12/17 04:21:14;;;;;;;12.50;11.30;;;6.30;99.90;;;;;;4984951;28;20399;-82
2021/12/17 04:23:45;;;;;;;14.23;11.70;;;6.30;99.90;;;;;;4981761;28;20399;-83
2021/12/17 04:26:15;;;;;;;12.60;10.73;;;6.20;99.90;;;;;;4986174;28;20068;-83
2021/12/17 04:28:46;;;;;;;17.85;12.52;;;6.20;99.90;;;;;;4975581;28;20046;-82
2021/12/17 04:31:15;;;;;;;12.45;11.15;;;6.30;99.90;;;;;;4976747;28;20057;-82
2021/12/17 04:33:43;;;;;;;11.88;10.82;;;6.20;99.90;;;;;;4975455;28;20053;-82
2021/12/17 04:36:15;;;;;;;12.65;11.38;;;6.20;99.90;;;;;;4976783;28;20054;-81
2021/12/17 04:38:42;;;;;;;12.77;11.48;;;6.20;99.90;;;;;;4976122;28;20042;-81
2021/12/17 04:46:42;;;;;;;11.77;10.52;;;6.10;99.90;;;;;;4988953;28;20042;-81
2021/12/17 04:57:36;;;;;;;11.52;10.48;;;5.70;99.90;;;;;;4984991;28;20046;-82
2021/12/17 05:00:20;;;;;;;12.73;11.60;;;5.50;99.90;;;;;;4986735;28;20042;-81
2021/12/17 05:02:57;;;;;;;12.00;10.43;;;5.40;99.90;;;;;;4978793;28;20033;-81
2021/12/17 05:05:28;;;;;;;11.77;10.73;;;5.40;99.90;;;;;;4994986;28;20044;-80
2021/12/17 05:08:03;;;;;;;12.48;11.30;;;5.20;99.90;;;;;;4992113;28;20042;-81
2021/12/17 05:19:02;;;;;;;11.02;10.00;;;4.70;99.90;;;;;;4977966;28;20042;-82
2021/12/17 05:21:31;;;;;;;10.70;9.80;;;4.50;99.90;;;;;;4975585;28;20065;-81
2021/12/17 05:23:58;;;;;;;13.18;10.82;;;4.50;99.90;;;;;;4993483;28;20053;-81
2021/12/17 05:26:24;;;;;;;11.73;10.43;;;4.40;99.90;;;;;;4986126;28;20050;-82
2021/12/17 05:28:55;;;;;;;13.77;11.07;;;4.30;99.90;;;;;;4981079;28;20042;-82
2021/12/17 05:31:28;;;;;;;12.82;11.52;;;4.20;99.90;;;;;;4976536;28;20399;-73
2021/12/17 05:33:57;;;;;;;14.02;12.63;;;4.10;99.90;;;;;;4986443;28;20056;-79
2021/12/17 05:36:28;;;;;;;12.07;10.85;;;4.00;99.90;;;;;;4980105;28;20035;-86
2021/12/17 05:39:03;;;;;;;14.50;12.20;;;3.90;99.90;;;;;;4981287;28;20038;-86
2021/12/17 05:41:32;;;;;;;12.52;11.23;;;3.80;99.90;;;;;;4987362;28;20045;-88
2021/12/17 05:44:18;;;;;;;15.02;12.82;;;3.70;99.90;;;;;;5007481;28;20050;-89
2021/12/17 05:46:50;;;;;;;14.88;13.00;;;3.70;99.90;;;;;;4976180;28;20049;-86
2021/12/17 05:49:21;;;;;;;16.60;12.90;;;3.70;99.90;;;;;;4994928;28;20064;-83
2021/12/17 05:51:48;;;;;;;15.10;13.30;;;3.70;99.90;;;;;;4976069;28;20061;-83
2021/12/17 05:54:15;;;;;;;16.20;14.50;;;3.50;99.90;;;;;;4976495;28;20045;-86
2021/12/17 05:56:42;;;;;;;18.92;15.63;;;3.40;99.90;;;;;;4993027;28;20034;-86
2021/12/17 05:59:09;;;;;;;16.42;14.40;;;3.30;99.90;;;;;;4975201;28;20047;-75
2021/12/17 06:01:36;;;;;;;18.25;13.40;;;3.20;99.90;;;;;;4997757;28;20056;-78
2021/12/17 06:04:04;;;;;;;14.93;13.40;;;3.10;99.90;;;;;;4975205;28;20038;-83
2021/12/17 06:06:36;;;;;;;18.23;15.80;;;3.10;99.90;;;;;;4990704;28;20065;-83
2021/12/17 06:09:08;;;;;;;15.80;14.40;;;3.00;99.90;;;;;;4993295;28;20037;-83
2021/12/17 06:11:36;;;;;;;15.23;13.60;;;3.10;99.90;;;;;;4984336;28;20391;-79
2021/12/17 06:14:05;;;;;;;16.35;14.68;;;3.00;99.90;;;;;;4991929;28;20049;-83
2021/12/17 06:16:36;;;;;;;16.20;13.77;;;2.80;99.90;;;;;;4978864;28;20045;-78
2021/12/17 06:19:07;;;;;;;15.23;13.75;;;2.80;99.90;;;;;;4974397;28;20057;-83
2021/12/17 06:21:33;;;;;;;14.10;12.95;;;2.70;99.90;;;;;;4993296;28;20053;-82
2021/12/17 06:24:00;;;;;;;16.05;14.43;;;2.70;99.90;;;;;;5004456;28;20356;-83
2021/12/17 06:26:27;;;;;;;16.00;14.35;;;2.70;99.90;;;;;;5001432;28;20038;-81
2021/12/17 06:28:55;;;;;;;17.58;15.52;;;2.60;99.90;;;;;;4995500;28;20045;-82
2021/12/17 06:31:23;;;;;;;15.73;14.30;;;2.50;99.90;;;;;;4964474;28;20442;-82
2021/12/17 06:33:50;;;;;;;16.75;15.27;;;2.50;99.90;;;;;;4975900;28;20061;-83
2021/12/17 06:36:17;;;;;;;16.92;14.00;;;2.50;99.90;;;;;;4983716;28;20054;-83
2021/12/17 06:38:44;;;;;;;15.82;14.23;;;2.40;99.90;;;;;;4988267;28;20045;-82
2021/12/17 06:41:11;;;;;;;16.95;15.20;;;2.30;99.90;;;;;;4993597;28;20050;-81
2021/12/17 06:43:42;;;;;;;22.33;15.00;;;2.20;99.90;;;;;;4985848;28;20037;-77
2021/12/17 06:48:49;;;;;;;16.92;13.95;;;2.00;99.90;;;;;;4988898;28;20399;-81
2021/12/17 06:57:50;;;;;;;15.50;13.65;;;1.90;99.90;;;;;;5004602;28;20330;-80
2021/12/17 07:06:08;;;;;;;20.77;18.60;;;1.90;99.90;;;;;;5008337;28;20071;-87
2021/12/17 07:17:24;;;;;;;19.38;15.35;;;1.70;99.90;;;;;;4994653;28;20050;-82
2021/12/17 07:22:25;;;;;;;16.67;15.20;;;1.80;99.90;;;;;;4983059;28;20050;-82
2021/12/17 07:33:36;;;;;;;17.60;13.95;;;1.70;99.90;;;;;;4978330;28;20498;-83
2021/12/17 07:38:35;;;;;;;18.38;16.52;;;1.80;99.90;;;;;;4978052;28;20061;-83
2021/12/17 07:39:29;;;;;;;18.35;16.52;;;1.90;99.90;;;;;;4981024;28;20386;-84
2021/12/17 07:42:09;;;;;;;20.38;18.38;;;1.80;99.90;;;;;;4992530;28;20041;-84
2021/12/17 07:44:35;;;;;;;20.25;17.83;;;1.90;99.90;;;;;;5007366;28;20047;-84
2021/12/17 07:47:25;;;;;;;19.65;17.85;;;1.80;99.90;;;;;;4985018;28;20038;-83
2021/12/17 07:50:19;;;;;;;23.85;20.58;;;1.80;99.90;;;;;;4999854;28;20034;-84
2021/12/17 07:53:06;;;;;;;21.33;19.10;;;1.80;99.90;;;;;;5003651;28;20411;-84
2021/12/17 07:55:40;;;;;;;22.67;20.25;;;1.80;99.90;;;;;;4983405;28;20431;-83
2021/12/17 07:58:11;;;;;;;;;;;1.80;99.90;;;;;;4986221;28;20057;-83
2021/12/17 08:00:40;;;;;;;22.52;20.48;;;1.80;99.90;;;;;;4981666;28;20244;-82
2021/12/17 08:03:06;;;;;;;24.63;22.17;;;1.80;99.90;;;;;;4995548;28;20042;-83
2021/12/17 08:05:48;;;;;;;24.98;22.30;;;1.80;99.90;;;;;;4973659;28;20388;-83
2021/12/17 08:08:15;;;;;;;23.48;19.05;;;1.80;99.90;;;;;;4985374;28;20042;-83
2021/12/17 08:10:49;;;;;;;;;;;1.80;99.90;;;;;;4982617;28;20046;-83
2021/12/17 08:13:23;;;;;;;20.63;18.67;;;1.90;99.90;;;;;;4986035;28;20279;-83
2021/12/17 08:24:32;;;;;;;17.92;16.33;;;2.10;99.90;;;;;;4977996;28;20049;-83
2021/12/17 08:29:51;;;;;;;16.85;15.27;;;2.20;99.90;;;;;;4977082;28;20046;-83
2021/12/17 08:32:17;;;;;;;17.55;15.63;;;2.30;99.90;;;;;;4977045;28;20065;-83
2021/12/17 08:34:59;;;;;;;17.33;14.48;;;2.40;99.90;;;;;;4976132;28;20042;-83
2021/12/17 08:37:25;;;;;;;18.40;16.50;;;2.50;99.90;;;;;;4977318;28;20050;-83
2021/12/17 08:39:54;;;;;;;19.05;17.08;;;2.50;99.90;;;;;;4989673;28;20042;-83
2021/12/17 08:42:28;;;;;;;20.65;18.65;;;2.60;99.90;;;;;;4983324;28;20476;-83
2021/12/17 08:50:19;;;;;;;21.63;18.50;;;3.00;99.90;;;;;;4941621;28;20513;-76
2021/12/17 08:52:47;;;;;;;19.00;17.10;;;3.30;99.90;;;;;;4948382;29;20051;-76
2021/12/17 08:55:16;;;;;;;18.75;17.05;;;3.30;99.90;;;;;;4935390;29;20054;-76
2021/12/17 08:57:42;;;;;;;18.00;16.42;;;3.40;99.90;;;;;;4934190;29;20048;-76
2021/12/17 09:00:12;;;;;;;18.90;16.92;;;3.50;99.90;;;;;;4931631;29;20047;-77
2021/12/17 09:03:00;;;;;;;15.07;13.73;;;3.60;99.90;;;;;;4908391;29;20052;-76
2021/12/17 09:05:41;;;;;;;15.18;12.65;;;3.60;99.90;;;;;;4936431;28;20401;-76
2021/12/17 09:08:10;;;;;;;16.17;13.13;;;3.70;99.90;;;;;;4918732;29;20044;-76
2021/12/17 09:10:52;;;;;;;13.57;12.18;;;3.80;99.90;;;;;;4926870;29;20404;-76
2021/12/17 09:13:27;;;;;;;13.38;12.00;;;4.00;99.90;;;;;;4918269;29;20050;-76
2021/12/17 09:15:58;;;;;;;13.95;12.52;;;4.10;99.90;;;;;;4933122;29;20040;-78
2021/12/17 09:18:30;;;;;;;12.68;11.48;;;4.30;99.90;;;;;;4933481;29;20400;-76
2021/12/17 09:21:20;;;;;;;13.85;11.82;;;4.50;99.90;;;;;;4935382;29;20055;-76
2021/12/17 09:23:59;;;;;;;17.70;12.25;;;4.80;99.90;;;;;;4918568;29;20400;-76
2021/12/17 09:26:29;;;;;;;13.05;9.90;;;5.10;99.90;;;;;;4935361;29;20047;-76
2021/12/17 09:28:56;;;;;;;9.85;8.95;;;5.20;99.90;;;;;;4937041;29;20780;-76
2021/12/17 09:31:22;;;;;;;12.18;9.95;;;5.30;99.90;;;;;;4933079;29;20040;-76
2021/12/17 09:33:49;;;;;;;10.48;9.02;;;5.50;99.90;;;;;;4935625;29;20059;-76
2021/12/17 09:36:17;;;;;;;8.90;8.00;;;5.70;99.90;;;;;;4936208;29;20503;-75
2021/12/17 09:38:46;;;;;;;8.10;7.00;;;5.80;99.90;;;;;;4935461;29;20397;-77
2021/12/17 09:41:12;;;;;;;9.82;7.47;;;6.10;99.90;;;;;;4938100;29;20488;-77
2021/12/17 09:43:38;;;;;;;7.15;6.45;;;6.30;99.90;;;;;;4944713;29;20027;-77
2021/12/17 09:46:06;;;;;;;7.85;5.35;;;6.40;99.90;;;;;;4948847;29;20042;-77
2021/12/17 09:48:34;;;;;;;7.45;6.72;;;6.50;99.90;;;;;;4945643;29;20031;-78
2021/12/17 09:51:03;;;;;;;8.00;7.20;;;6.60;99.90;;;;;;4951666;29;20051;-77
2021/12/17 09:53:29;;;;;;;7.97;5.70;;;6.70;99.90;;;;;;4925922;29;20039;-78
2021/12/17 09:55:56;;;;;;;8.23;6.30;;;6.80;99.90;;;;;;4936039;29;20495;-78
2021/12/17 09:58:24;;;;;;;10.07;7.70;;;6.90;99.90;;;;;;4943006;28;20030;-77
2021/12/17 10:00:50;;;;;;;8.63;6.85;;;7.00;99.90;;;;;;4942897;28;20043;-77
2021/12/17 10:03:16;;;;;;;9.18;7.13;;;7.20;99.90;;;;;;4935234;29;20039;-77
2021/12/17 10:05:44;;;;;;;8.32;7.50;;;7.30;99.90;;;;;;4938958;29;20043;-77
2021/12/17 10:08:17;;;;;;;8.38;7.57;;;7.30;99.90;;;;;;4945667;29;20031;-77
2021/12/17 10:10:55;;;;;;;8.50;6.75;;;7.40;99.90;;;;;;4947571;29;20034;-77
2021/12/17 10:13:23;;;;;;;6.65;6.05;;;7.50;99.90;;;;;;4941161;29;20493;-76
2021/12/17 10:15:53;;;;;;;7.95;6.13;;;7.60;99.90;;;;;;4950163;29;20031;-75
2021/12/17 10:18:49;;;;;;;7.55;6.35;;;7.70;98.90;;;;;;4949082;29;20417;-76
2021/12/17 10:21:23;;;;;;;6.93;6.30;;;7.90;98.60;;;;;;4935975;29;20047;-76
2021/12/17 10:23:52;;;;;;;9.52;6.53;;;7.90;97.40;;;;;;4936711;29;20031;-77
2021/12/17 10:26:20;;;;;;;8.32;7.43;;;8.00;97.20;;;;;;4939499;29;20040;-77
2021/12/17 10:28:53;;;;;;;7.82;7.13;;;8.00;96.40;;;;;;4939160;29;20046;-76
2021/12/17 10:31:20;;;;;;;8.32;6.53;;;8.10;95.90;;;;;;4938959;29;20039;-77
2021/12/17 10:33:52;;;;;;;7.88;7.18;;;8.00;95.50;;;;;;4938876;29;20051;-77
2021/12/17 10:36:33;;;;;;;6.47;5.88;;;8.10;94.80;;;;;;4950237;29;20031;-77
2021/12/17 10:39:03;;;;;;;8.88;6.65;;;8.30;94.10;;;;;;4947869;28;20031;-77
2021/12/17 10:41:30;;;;;;;10.88;6.60;;;8.20;93.30;;;;;;4950734;29;20392;-78
2021/12/17 10:44:07;;;;;;;9.32;6.70;;;8.30;93.20;;;;;;4938047;29;20027;-76
2021/12/17 10:46:35;;;;;;;8.18;7.38;;;8.30;92.60;;;;;;4938363;29;20039;-77
2021/12/17 10:49:13;;;;;;;8.00;6.57;;;8.40;92.30;;;;;;4946093;29;20058;-78
2021/12/17 10:54:15;;;;;;;7.53;6.07;;;8.50;92.30;;;;;;4938558;29;20043;-77
2021/12/17 10:56:45;;;;;;;12.10;8.18;;;8.60;91.00;;;;;;4938471;29;20035;-79
2021/12/17 10:59:14;;;;;;;7.72;6.95;;;8.70;90.50;;;;;;4938656;29;20035;-76
2021/12/17 11:01:49;;;;;;;10.73;8.13;;;8.80;90.00;;;;;;4939451;28;20035;-78
2021/12/17 11:04:25;;;;;;;10.27;7.10;;;8.80;90.10;;;;;;4956507;29;20475;-78
2021/12/17 11:06:57;;;;;;;7.20;6.45;;;8.70;89.30;;;;;;4937814;29;20044;-78
2021/12/17 11:09:40;;;;;;;6.72;6.03;;;8.70;88.20;;;;;;4947087;29;20032;-78
2021/12/17 11:12:35;;;;;;;6.82;6.22;;;8.60;88.40;;;;;;4937955;29;20043;-75
2021/12/17 11:15:13;;;;;;;6.43;5.28;;;8.60;87.90;;;;;;4947814;29;20031;-76
2021/12/17 11:17:41;;;;;;;10.02;6.43;;;8.50;88.20;;;;;;4948078;29;20468;-74
2021/12/17 11:20:17;;;;;;;7.13;6.35;;;8.40;88.60;;;;;;4938448;29;20042;-74
2021/12/17 11:22:46;;;;;;;8.07;5.97;;;8.20;88.80;;;;;;4937873;29;20055;-74
2021/12/17 11:25:13;;;;;;;8.25;7.10;;;8.10;89.60;;;;;;4937462;29;20051;-75
2021/12/17 11:27:39;;;;;;;7.57;6.30;;;8.00;89.90;;;;;;4938060;29;20508;-74
2021/12/17 11:30:09;;;;;;;6.95;5.65;;;8.00;89.70;;;;;;4938077;29;20027;-77
2021/12/17 11:32:35;;;;;;;7.57;6.28;;;8.00;89.90;;;;;;4938270;29;20039;-78
2021/12/17 11:35:03;;;;;;;6.45;5.47;;;7.90;89.60;;;;;;4945741;28;20047;-76
2021/12/17 11:37:31;;;;;;;8.23;5.47;;;7.90;90.10;;;;;;4938123;29;20039;-76
2021/12/17 11:40:01;;;;;;;7.03;6.18;;;8.00;89.70;;;;;;4942486;29;20055;-78
2021/12/17 11:42:39;;;;;;;7.25;6.18;;;8.00;89.90;;;;;;4937644;29;20102;-77
2021/12/17 11:45:25;;;;;;;8.77;6.63;;;8.00;89.90;;;;;;4937069;29;20036;-77
2021/12/17 11:47:54;;;;;;;10.13;6.22;;;8.10;89.80;;;;;;4955041;28;20103;-77
2021/12/17 11:50:21;;;;;;;6.63;6.03;;;8.20;89.90;;;;;;4942007;28;20062;-77
2021/12/17 11:52:50;;;;;;;7.18;6.20;;;8.40;88.50;;;;;;4935645;29;20051;-77
2021/12/17 11:55:25;;;;;;;10.02;6.60;;;8.70;87.20;;;;;;4933206;29;20062;-76
2021/12/17 11:57:57;;;;;;;7.22;5.82;;;8.60;86.60;;;;;;4907547;29;20047;-76
2021/12/17 12:00:43;;;;;;;8.02;7.05;;;8.60;87.00;;;;;;4935380;29;20043;-77
2021/12/17 12:03:14;;;;;;;7.97;6.35;;;8.50;86.60;;;;;;4937091;29;20493;-76
2021/12/17 12:05:43;;;;;;;6.75;6.10;;;8.40;86.70;;;;;;4937097;29;20035;-77
2021/12/17 12:08:30;;;;;;;9.07;5.82;;;8.40;87.20;;;;;;4942489;28;20464;-77
2021/12/17 12:11:18;;;;;;;6.00;5.18;;;8.40;86.90;;;;;;4936255;29;20038;-78
2021/12/17 12:13:53;;;;;;;5.55;5.05;;;8.30;87.30;;;;;;4919402;29;20047;-78
2021/12/17 12:16:25;;;;;;;5.88;5.38;;;8.30;86.90;;;;;;4936437;29;20469;-77
2021/12/17 12:18:59;;;;;;;6.80;5.97;;;8.20;87.50;;;;;;4936249;29;20051;-78
2021/12/17 12:21:33;;;;;;;5.45;4.82;;;8.30;86.30;;;;;;4922839;29;20036;-77
2021/12/17 12:24:09;;;;;;;5.47;4.97;;;8.40;85.80;;;;;;4938055;29;20040;-77
2021/12/17 12:26:40;;;;;;;8.48;5.57;;;8.50;85.60;;;;;;4943296;29;20036;-78
2021/12/17 12:29:09;;;;;;;;;;;8.60;85.30;;;;;;4937525;29;20036;-77
2021/12/17 12:31:38;;;;;;;7.60;6.18;;;8.70;84.60;;;;;;4937165;29;19915;-76
2021/12/17 12:34:06;;;;;;;8.70;6.50;;;8.60;83.90;;;;;;4936000;29;20042;-78
2021/12/17 12:36:58;;;;;;;8.25;5.95;;;8.60;84.00;;;;;;4946052;28;20046;-77
2021/12/17 12:39:42;;;;;;;12.13;5.45;;;8.60;83.60;;;;;;4937477;29;20047;-77
2021/12/17 12:42:24;;;;;;;6.65;4.82;;;8.60;83.50;;;;;;4936142;29;20039;-80
2021/12/17 12:44:50;;;;;;;8.00;6.55;;;8.80;82.60;;;;;;4936125;29;20042;-79
2021/12/17 12:47:34;;;;;;;5.60;5.10;;;8.70;82.90;;;;;;4935184;29;20044;-75
2021/12/17 12:50:03;;;;;;;7.38;6.60;;;8.70;83.60;;;;;;4945431;29;20649;-78
2021/12/17 12:52:44;;;;;;;9.93;5.55;;;8.80;82.90;;;;;;4947896;29;20047;-73
2021/12/17 12:55:19;;;;;;;7.25;6.10;;;8.80;82.10;;;;;;4937352;29;20043;-76
2021/12/17 12:57:59;;;;;;;7.68;6.15;;;8.70;82.40;;;;;;4936108;29;20027;-74
2021/12/17 13:00:29;;;;;;;6.47;5.80;;;8.60;82.60;;;;;;4937195;29;20087;-74
2021/12/17 13:03:12;;;;;;;7.35;6.53;;;8.70;82.70;;;;;;4936425;29;20042;-74
2021/12/17 13:05:40;;;;;;;8.50;6.18;;;8.70;82.40;;;;;;4936286;29;20350;-83
2021/12/17 13:08:08;;;;;;;7.15;6.15;;;8.70;82.20;;;;;;4935471;29;20031;-74
2021/12/17 13:10:38;;;;;;;8.05;6.43;;;8.60;82.60;;;;;;4935715;29;20039;-74
2021/12/17 13:13:11;;;;;;;9.70;7.93;;;8.50;83.20;;;;;;4935510;29;20047;-73
2021/12/17 13:15:49;;;;;;;9.25;6.45;;;8.50;83.50;;;;;;4935617;29;20499;-77
2021/12/17 13:23:52;;;;;;;10.07;6.73;;;8.40;83.50;;;;;;4935112;29;20472;-78
2021/12/17 13:26:21;;;;;;;8.52;7.60;;;8.40;83.20;;;;;;4935183;29;20038;-78
2021/12/17 13:28:55;;;;;;;8.07;7.20;;;8.40;83.00;;;;;;4934858;29;20054;-74
2021/12/17 13:31:41;;;;;;;8.95;7.50;;;8.50;83.30;;;;;;4935615;29;20027;-74
2021/12/17 13:34:17;;;;;;;8.30;7.25;;;8.40;83.30;;;;;;4936159;29;20448;-74
2021/12/17 13:36:55;;;;;;;10.95;6.53;;;8.30;83.00;;;;;;4918453;29;20039;-74
2021/12/17 13:39:24;;;;;;;10.10;8.25;;;8.30;83.40;;;;;;4935137;29;20042;-75
2021/12/17 13:41:51;;;;;;;9.80;7.97;;;8.30;83.40;;;;;;4916849;29;20465;-73
2021/12/17 13:44:26;;;;;;;12.23;7.18;;;8.30;84.00;;;;;;4934630;29;20039;-73
2021/12/17 13:46:53;;;;;;;11.48;8.82;;;8.30;83.90;;;;;;4942114;29;20032;-74
2021/12/17 13:49:20;;;;;;;10.73;8.90;;;8.30;83.60;;;;;;4940847;29;20039;-75
2021/12/17 13:51:46;;;;;;;13.38;8.48;;;8.20;83.90;;;;;;4937914;29;20051;-77
2021/12/17 13:54:13;;;;;;;8.95;8.07;;;8.10;84.50;;;;;;4935931;29;20040;-75
2021/12/17 13:56:39;;;;;;;10.20;8.90;;;8.10;84.70;;;;;;4935208;29;20039;-77
2021/12/17 13:59:07;;;;;;;10.27;8.82;;;8.10;84.90;;;;;;4935068;29;20384;-75
2021/12/17 14:01:36;;;;;;;13.35;9.55;;;8.10;85.00;;;;;;4935494;29;20031;-74
2021/12/17 14:04:11;;;;;;;9.65;8.85;;;8.10;84.90;;;;;;4935451;29;20032;-75
2021/12/17 14:06:50;;;;;;;10.05;9.00;;;8.00;85.10;;;;;;4935594;29;20035;-76
2021/12/17 14:09:18;;;;;;;12.88;9.23;;;8.00;85.30;;;;;;4935326;29;20031;-74
2021/12/17 14:11:44;;;;;;;12.88;9.15;;;7.90;85.80;;;;;;4926691;29;20051;-76
2021/12/17 14:14:33;;;;;;;9.88;8.88;;;7.70;86.20;;;;;;4935488;29;20035;-75
2021/12/17 14:17:04;;;;;;;10.82;9.50;;;7.60;86.90;;;;;;4935557;29;20032;-75
2021/12/17 14:19:39;;;;;;;;;;;7.60;87.30;;;;;;4939808;29;20031;-74
2021/12/17 14:22:28;;;;;;;9.65;8.48;;;7.50;87.50;;;;;;4953712;29;19929;-80
2021/12/17 14:24:56;;;;;;;10.07;9.02;;;7.50;87.40;;;;;;4943101;29;20043;-74
2021/12/17 14:27:40;;;;;;;11.95;10.75;;;7.40;87.70;;;;;;4935216;29;20039;-74
2021/12/17 14:30:07;;;;;;;12.82;11.50;;;7.40;87.90;;;;;;4935602;29;20038;-73
2021/12/17 14:32:40;;;;;;;14.25;10.93;;;7.30;87.70;;;;;;4934683;29;20051;-73
2021/12/17 14:35:07;;;;;;;13.00;11.68;;;7.30;87.90;;;;;;4935379;29;20060;-74
2021/12/17 14:37:56;;;;;;;11.00;9.68;;;7.20;88.10;;;;;;4935179;29;20032;-73
2021/12/17 14:40:28;;;;;;;11.48;10.05;;;7.20;88.50;;;;;;4935646;29;20031;-74
2021/12/17 14:42:56;;;;;;;12.80;11.18;;;7.20;88.30;;;;;;4934874;29;20069;-73
2021/12/17 14:45:34;;;;;;;13.90;10.02;;;7.20;88.50;;;;;;4934944;29;20036;-73
2021/12/17 14:48:33;;;;;;;13.60;10.25;;;7.20;88.50;;;;;;4923966;29;20100;-73
2021/12/17 15:04:44;;;;;;;11.93;10.57;;;7.00;88.50;;;;;;4943895;29;20044;-74
2021/12/17 15:07:11;;;;;;;20.00;18.30;;;7.00;88.70;;;;;;4937622;29;20035;-74
2021/12/17 15:09:42;;;;;;;12.10;10.90;;;7.00;88.80;;;;;;4936195;29;20042;-74
2021/12/17 15:12:55;;;;;;;14.90;13.38;;;6.90;88.70;;;;;;4953048;29;20044;-74
2021/12/17 15:15:02;;;;;;;16.58;14.07;;;6.90;88.90;;;;;;4927760;29;20063;-75
2021/12/17 15:17:29;;;;;;;12.57;10.02;;;7.00;89.20;;;;;;4937942;29;20046;-73
2021/12/17 15:19:55;;;;;;;11.95;10.02;;;7.00;89.20;;;;;;4937874;29;20040;-74
2021/12/17 15:22:21;;;;;;;9.68;8.55;;;7.00;89.20;;;;;;4939128;29;20412;-73
2021/12/17 15:24:47;;;;;;;10.70;9.70;;;7.00;89.30;;;;;;4921021;28;20055;-74
2021/12/17 15:27:14;;;;;;;11.50;10.10;;;7.00;89.50;;;;;;4961001;28;20027;-74
2021/12/17 15:29:40;;;;;;;9.57;8.68;;;7.00;89.80;;;;;;4949868;28;20032;-84
2021/12/17 15:32:07;;;;;;;15.82;9.50;;;7.00;90.00;;;;;;4938383;29;20043;-75
2021/12/17 15:34:34;;;;;;;12.05;9.07;;;6.90;90.20;;;;;;4937850;29;20042;-74
2021/12/17 15:37:00;;;;;;;8.70;7.80;;;6.90;90.20;;;;;;4953881;29;20038;-74
2021/12/17 15:39:27;;;;;;;14.18;8.25;;;6.90;90.40;;;;;;4941615;29;20039;-73
2021/12/17 15:41:54;;;;;;;8.75;7.55;;;6.90;90.40;;;;;;4937596;29;20058;-75
2021/12/17 15:44:20;;;;;;;10.32;7.90;;;6.90;90.40;;;;;;4952069;29;20489;-73
2021/12/17 15:46:47;;;;;;;12.95;8.63;;;6.90;90.50;;;;;;4938027;29;20035;-73
2021/12/17 15:49:13;;;;;;;12.18;8.75;;;6.90;90.50;;;;;;4938274;29;20054;-73
2021/12/17 15:51:39;;;;;;;12.07;10.98;;;6.80;90.50;;;;;;4937528;29;20036;-79
2021/12/17 15:54:06;;;;;;;11.43;10.23;;;6.90;90.50;;;;;;4937589;29;20389;-73
2021/12/17 15:56:32;;;;;;;12.73;9.38;;;6.90;90.40;;;;;;4937384;29;20040;-73
2021/12/17 15:58:59;;;;;;;55.30;48.00;;;6.80;90.40;;;;;;4937303;29;20034;-73
2021/12/17 16:01:25;;;;;;;17.33;12.50;;;6.80;90.40;;;;;;4942429;29;20031;-73
2021/12/17 16:03:51;;;;;;;25.05;17.58;;;6.80;90.00;;;;;;4953207;29;20035;-73
2021/12/17 16:06:18;;;;;;;11.98;10.68;;;6.80;90.10;;;;;;4920735;29;20035;-73
2021/12/17 16:08:49;;;;;;;15.93;12.57;;;6.80;90.10;;;;;;4937515;29;20043;-74
2021/12/17 16:22:17;;;;;;;12.25;9.05;;;6.70;90.30;;;;;;4961204;28;20032;-76
2021/12/17 16:24:43;;;;;;;10.93;9.07;;;6.80;90.20;;;;;;4964661;28;20031;-77
2021/12/17 16:27:09;;;;;;;10.00;9.10;;;6.70;90.30;;;;;;4945650;28;20038;-76
2021/12/17 16:29:36;;;;;;;19.05;17.25;;;6.70;90.50;;;;;;4963131;28;20038;-76
2021/12/17 16:32:02;;;;;;;13.25;10.15;;;6.70;90.70;;;;;;4946215;28;20038;-76
2021/12/17 16:34:28;;;;;;;45.72;36.25;;;6.70;90.80;;;;;;4961252;28;20030;-78
2021/12/17 16:36:55;;;;;;;69.20;60.03;;;6.70;90.90;;;;;;4959859;28;20054;-78